GMMN/CMN METAR and TAF weather

Enter ICAO airport designator
Station Type Date Time Source
GMMN METAR 2019/11/18 04:00 UTC NOAA

GMMN 180400Z 17007KT CAVOK 07/04 Q1019 NOSIG


Station Type Date Time Source
GMMN Decoded METAR 2019/11/18 04:00 UTC NOAA

Nouasseur, Morocco (GMMN) 33-22N 007-35W 206M
Nov 17, 2019 - 11:00 PM EST / 2019.11.18 0400 UTC
Wind: from the S (170 degrees) at 8 MPH (7 KT):0
Visibility: greater than 7 mile(s):0
Temperature: 44 F (7 C)
Dew Point: 39 F (4 C)
Relative Humidity: 81%
Pressure (altimeter): 30.09 in. Hg (1019 hPa)
ob: GMMN 180400Z 17007KT CAVOK 07/04 Q1019 NOSIG
cycle: 4

Station Type Date Time Source
GMMN TAF 2019/11/17 18:21 UTC NOAA

TAF TAF GMMN 171700Z 1718/1824 34010KT CAVOK
BECMG 1720/1723 18012KT
BECMG 1809/1811 34010KT SCT015
TEMPO 1812/1818 4000 RA SCT013 SCT020TCU
BECMG 1819/1821 14006KT 8000 BKN013

Example: see airport list